Time;durP1;ratioP1;P1;durP2;ratioP2;P2;SDS_P1;SDS_P2;PMS_P1;PMS_P2;Temp;Humidity;BMP_temperature;BMP_pressure;BME280_temperature;BME280_humidity;BME280_pressure;Samples;Min_cycle;Max_cycle;Signal;HPM_P1;HPM_P2
2022/04/08 00:01:01;;;;;;;4.63;1.53;;;7.50;99.90;;;;;;5052265;28;20539;-64
2022/04/08 00:03:28;;;;;;;2.70;1.73;;;7.50;99.90;;;;;;5052540;28;20177;-65
2022/04/08 00:05:57;;;;;;;5.63;1.90;;;7.60;99.90;;;;;;5052594;28;20197;-64
2022/04/08 00:08:23;;;;;;;5.40;1.93;;;7.70;99.90;;;;;;5052774;28;20197;-63
2022/04/08 00:10:49;;;;;;;4.70;1.90;;;7.70;99.90;;;;;;5052127;28;20212;-63
2022/04/08 00:13:15;;;;;;;5.13;2.10;;;7.70;99.90;;;;;;5052052;28;20216;-64
2022/04/08 00:15:41;;;;;;;5.33;2.20;;;7.70;99.90;;;;;;5052144;28;20169;-63
2022/04/08 00:18:08;;;;;;;6.93;1.90;;;7.80;99.90;;;;;;5052803;28;20173;-64
2022/04/08 00:20:34;;;;;;;5.30;1.63;;;7.80;99.90;;;;;;5052558;28;20207;-64
2022/04/08 00:23:01;;;;;;;4.30;1.97;;;7.80;99.90;;;;;;5056290;28;20615;-64
2022/04/08 00:25:27;;;;;;;4.33;1.80;;;7.80;99.90;;;;;;5056014;28;20181;-64
2022/04/08 00:27:53;;;;;;;6.70;1.87;;;7.90;99.90;;;;;;5056057;28;20220;-63
2022/04/08 00:30:19;;;;;;;8.37;2.23;;;7.90;99.90;;;;;;5055320;28;20173;-63
2022/04/08 00:32:45;;;;;;;4.93;2.10;;;7.90;99.90;;;;;;5055956;28;20209;-64
2022/04/08 00:35:10;;;;;;;10.80;4.03;;;7.90;99.90;;;;;;5055927;28;20178;-64
2022/04/08 00:37:36;;;;;;;6.00;2.87;;;7.90;99.90;;;;;;5056098;28;20181;-64
2022/04/08 00:40:03;;;;;;;9.37;2.33;;;7.90;99.90;;;;;;5055790;28;20644;-64
2022/04/08 00:42:29;;;;;;;6.47;2.07;;;7.90;99.90;;;;;;5055430;28;20177;-64
2022/04/08 00:44:55;;;;;;;4.90;2.30;;;7.90;99.90;;;;;;5055317;28;20575;-64
2022/04/08 00:47:20;;;;;;;4.70;1.97;;;7.90;99.90;;;;;;5055997;28;20170;-64
2022/04/08 00:49:46;;;;;;;6.20;2.10;;;7.90;99.90;;;;;;5055646;28;20275;-64
2022/04/08 00:52:13;;;;;;;4.33;2.07;;;8.00;99.90;;;;;;5055469;28;20177;-64
2022/04/08 00:54:40;;;;;;;4.30;1.93;;;8.00;99.90;;;;;;5055307;28;20260;-64
2022/04/08 00:57:06;;;;;;;7.37;2.80;;;8.00;99.90;;;;;;5055318;28;20229;-63
2022/04/08 00:59:32;;;;;;;5.37;2.33;;;8.00;99.90;;;;;;5055126;28;20340;-64
2022/04/08 01:01:58;;;;;;;4.83;2.27;;;8.00;99.90;;;;;;5055670;28;20169;-62
2022/04/08 01:04:27;;;;;;;6.33;3.17;;;7.90;99.90;;;;;;5055484;28;20184;-64
2022/04/08 01:06:53;;;;;;;6.50;2.53;;;7.80;99.90;;;;;;5055466;28;20177;-64
2022/04/08 01:09:19;;;;;;;5.83;2.00;;;7.80;99.90;;;;;;5055425;28;20177;-63
2022/04/08 01:11:45;;;;;;;143.93;17.10;;;7.70;99.90;;;;;;5054897;28;20643;-63
2022/04/08 01:14:13;;;;;;;13.40;3.30;;;7.70;99.90;;;;;;5054830;28;20275;-63
2022/04/08 01:16:39;;;;;;;4.33;2.40;;;7.70;99.90;;;;;;5055275;28;20562;-63
2022/04/08 01:19:05;;;;;;;5.83;2.73;;;7.70;99.90;;;;;;5055049;28;20169;-63
2022/04/08 01:21:31;;;;;;;3.50;2.40;;;7.70;99.90;;;;;;5054948;28;20192;-64
2022/04/08 01:23:58;;;;;;;6.53;2.67;;;7.70;99.90;;;;;;5054732;28;20173;-64
2022/04/08 01:26:24;;;;;;;4.40;2.97;;;7.70;99.90;;;;;;5054941;28;20208;-63
2022/04/08 01:28:51;;;;;;;5.07;2.53;;;7.70;99.90;;;;;;5054337;28;20255;-63
2022/04/08 01:31:17;;;;;;;15.43;3.17;;;7.80;99.90;;;;;;5054906;28;20234;-63
2022/04/08 01:33:42;;;;;;;23.87;4.60;;;7.80;99.90;;;;;;5053843;28;20703;-63
2022/04/08 01:36:08;;;;;;;12.27;3.00;;;7.80;99.90;;;;;;5054955;28;20170;-63
2022/04/08 01:38:34;;;;;;;6.90;2.67;;;7.90;99.90;;;;;;5054671;28;20185;-64
2022/04/08 01:41:00;;;;;;;22.10;4.20;;;8.00;99.90;;;;;;5054578;28;20180;-64
2022/04/08 01:43:25;;;;;;;12.30;3.17;;;7.90;99.90;;;;;;5053947;28;20658;-64
2022/04/08 01:45:51;;;;;;;4.87;2.40;;;7.70;99.90;;;;;;5054667;28;20196;-63
2022/04/08 01:48:17;;;;;;;21.13;4.20;;;7.70;99.90;;;;;;5054646;28;20189;-64
2022/04/08 01:50:43;;;;;;;16.40;4.03;;;7.60;99.90;;;;;;5054482;28;20180;-63
2022/04/08 01:53:09;;;;;;;6.07;2.70;;;7.70;99.90;;;;;;5054130;28;20295;-64
2022/04/08 01:55:35;;;;;;;7.67;3.23;;;7.60;99.90;;;;;;5053642;28;20224;-65
2022/04/08 01:58:02;;;;;;;45.23;7.17;;;7.60;99.90;;;;;;5054184;28;20268;-65
2022/04/08 02:00:31;;;;;;;6.03;2.50;;;7.60;99.90;;;;;;5054216;28;20177;-64
2022/04/08 02:02:57;;;;;;;5.27;2.63;;;7.70;99.90;;;;;;5054290;28;20253;-64
2022/04/08 02:05:23;;;;;;;5.70;3.23;;;7.50;99.90;;;;;;5054163;28;20576;-64
2022/04/08 02:07:48;;;;;;;4.30;2.70;;;7.50;99.90;;;;;;5054344;28;20173;-64
2022/04/08 02:10:14;;;;;;;4.10;2.83;;;7.50;99.90;;;;;;5054041;28;20624;-64
2022/04/08 02:12:40;;;;;;;5.03;2.60;;;7.50;99.90;;;;;;5053659;28;20204;-63
2022/04/08 02:15:06;;;;;;;5.97;2.50;;;7.60;99.90;;;;;;5054378;28;20611;-63
2022/04/08 02:17:32;;;;;;;5.00;2.87;;;7.60;99.90;;;;;;5054293;28;20185;-64
2022/04/08 02:19:58;;;;;;;3.80;2.70;;;7.70;99.90;;;;;;5053902;28;20212;-64
2022/04/08 02:22:24;;;;;;;6.97;3.13;;;7.70;99.90;;;;;;5053760;28;20217;-64
2022/04/08 02:24:51;;;;;;;5.63;2.93;;;7.70;99.90;;;;;;5053511;28;20165;-64
2022/04/08 02:27:17;;;;;;;4.97;3.03;;;7.60;99.90;;;;;;5053971;28;20178;-64
2022/04/08 02:29:43;;;;;;;5.83;3.00;;;7.50;99.90;;;;;;5053762;28;20184;-64
2022/04/08 02:32:11;;;;;;;3.93;3.03;;;7.50;99.90;;;;;;5053441;28;20178;-63
2022/04/08 02:34:38;;;;;;;7.53;3.03;;;7.50;99.90;;;;;;5053529;28;20188;-64
2022/04/08 02:37:05;;;;;;;6.03;3.23;;;7.40;99.90;;;;;;5053774;28;20184;-63
2022/04/08 02:39:31;;;;;;;4.27;2.97;;;7.30;99.90;;;;;;5053352;28;20195;-64
2022/04/08 02:41:57;;;;;;;5.30;3.30;;;7.20;99.90;;;;;;5053369;28;20612;-64
2022/04/08 02:44:23;;;;;;;8.63;3.10;;;7.20;99.90;;;;;;5053358;28;20184;-64
2022/04/08 02:46:48;;;;;;;6.93;3.60;;;7.10;99.90;;;;;;5053484;28;20189;-64
2022/04/08 02:49:14;;;;;;;9.57;3.90;;;7.20;99.90;;;;;;5053363;28;20231;-63
2022/04/08 02:51:39;;;;;;;5.90;3.10;;;7.10;99.90;;;;;;5053152;28;20169;-64
2022/04/08 02:54:05;;;;;;;4.00;3.20;;;7.20;99.90;;;;;;5052889;28;20205;-63
2022/04/08 02:56:30;;;;;;;6.53;3.53;;;7.10;99.90;;;;;;5053311;28;20579;-63
2022/04/08 02:58:57;;;;;;;6.60;3.77;;;7.20;99.90;;;;;;5053383;28;20165;-63
2022/04/08 03:01:24;;;;;;;7.40;3.70;;;7.20;99.90;;;;;;5053106;28;20181;-64
2022/04/08 03:03:49;;;;;;;7.03;3.73;;;7.30;99.90;;;;;;5053063;28;20719;-64
2022/04/08 03:06:15;;;;;;;7.17;3.80;;;7.30;99.90;;;;;;5053382;28;20197;-64
2022/04/08 03:08:40;;;;;;;4.67;3.87;;;7.30;99.90;;;;;;5052870;28;20250;-64
2022/04/08 03:11:06;;;;;;;6.57;3.77;;;7.30;99.90;;;;;;5053031;28;20655;-63
2022/04/08 03:13:32;;;;;;;7.30;3.93;;;7.30;99.90;;;;;;5053256;28;20231;-63
2022/04/08 03:15:58;;;;;;;9.17;3.70;;;7.30;99.90;;;;;;5053058;28;20173;-64
2022/04/08 03:18:23;;;;;;;9.67;3.83;;;7.30;99.90;;;;;;5053026;28;20303;-63
2022/04/08 03:20:49;;;;;;;6.83;3.40;;;7.30;99.90;;;;;;5052491;28;20218;-65
2022/04/08 03:23:15;;;;;;;6.57;3.60;;;7.20;99.90;;;;;;5052443;28;20169;-65
2022/04/08 03:25:41;;;;;;;5.10;2.90;;;7.20;99.90;;;;;;5053004;28;20588;-64
2022/04/08 03:28:08;;;;;;;8.40;3.77;;;7.30;99.90;;;;;;5052735;28;20184;-64
2022/04/08 03:30:34;;;;;;;5.77;3.30;;;7.30;99.90;;;;;;5052738;28;20177;-64
2022/04/08 03:33:00;;;;;;;7.23;4.13;;;7.30;99.90;;;;;;5052430;28;20270;-63
2022/04/08 03:35:25;;;;;;;6.27;3.40;;;7.30;99.90;;;;;;5052726;28;20252;-63
2022/04/08 03:37:51;;;;;;;9.30;3.50;;;7.30;99.90;;;;;;5052550;28;20173;-64
2022/04/08 03:40:16;;;;;;;7.37;4.00;;;7.30;99.90;;;;;;5052486;28;20169;-65
2022/04/08 03:42:42;;;;;;;8.47;3.80;;;7.30;99.90;;;;;;5052666;28;20601;-64
2022/04/08 03:45:08;;;;;;;7.73;3.20;;;7.30;99.90;;;;;;5052716;28;20219;-65
2022/04/08 03:47:33;;;;;;;6.27;3.10;;;7.20;99.90;;;;;;5052620;28;20537;-64
2022/04/08 03:49:59;;;;;;;3.80;2.90;;;7.20;99.90;;;;;;5052623;28;20184;-65
2022/04/08 03:52:29;;;;;;;5.70;3.20;;;7.00;99.90;;;;;;5051928;28;20223;-64
2022/04/08 03:54:55;;;;;;;6.57;3.47;;;7.00;99.90;;;;;;5052029;28;20199;-63
2022/04/08 03:57:21;;;;;;;5.23;3.00;;;7.00;99.90;;;;;;5055994;28;20248;-63
2022/04/08 03:59:47;;;;;;;8.10;3.27;;;7.00;99.90;;;;;;5056572;28;20271;-64
2022/04/08 04:02:13;;;;;;;7.77;3.43;;;6.90;99.90;;;;;;5056037;28;20549;-64
2022/04/08 04:04:38;;;;;;;6.13;3.43;;;7.00;99.90;;;;;;5056275;28;20169;-64
2022/04/08 04:07:04;;;;;;;11.07;3.60;;;7.00;99.90;;;;;;5055957;28;20519;-63
2022/04/08 04:09:30;;;;;;;6.07;3.30;;;7.00;99.90;;;;;;5056192;28;20173;-64
2022/04/08 04:11:56;;;;;;;5.10;3.60;;;7.00;99.90;;;;;;5055764;28;20173;-65
2022/04/08 04:14:21;;;;;;;9.43;3.40;;;6.90;99.90;;;;;;5055871;28;20265;-65
2022/04/08 04:16:47;;;;;;;7.30;3.30;;;6.90;99.90;;;;;;5056318;28;20173;-64
2022/04/08 04:19:12;;;;;;;8.17;3.87;;;7.00;99.90;;;;;;5055984;28;20643;-64
2022/04/08 04:21:39;;;;;;;7.23;3.43;;;6.90;99.90;;;;;;5055620;28;20215;-63
2022/04/08 04:24:05;;;;;;;4.47;3.40;;;6.80;99.90;;;;;;5055550;28;20177;-64
2022/04/08 04:26:30;;;;;;;4.23;3.10;;;6.80;99.90;;;;;;5055773;28;20175;-64
2022/04/08 04:28:56;;;;;;;6.13;3.50;;;6.70;99.90;;;;;;5056169;28;20275;-64
2022/04/08 04:31:22;;;;;;;8.17;3.53;;;6.80;99.90;;;;;;5055568;28;20218;-63
2022/04/08 04:33:47;;;;;;;6.67;3.20;;;6.90;99.90;;;;;;5055365;28;20486;-63
2022/04/08 04:36:13;;;;;;;5.83;3.20;;;6.80;99.90;;;;;;5055468;28;20165;-62
2022/04/08 04:38:38;;;;;;;3.57;3.27;;;6.80;99.90;;;;;;5055458;28;20684;-63
2022/04/08 04:41:04;;;;;;;7.03;3.30;;;6.80;99.90;;;;;;5055506;28;20219;-63
2022/04/08 04:43:30;;;;;;;6.90;3.50;;;6.80;99.90;;;;;;5055587;28;20165;-63
2022/04/08 04:45:56;;;;;;;6.83;3.00;;;6.80;99.90;;;;;;5055662;28;20193;-65
2022/04/08 04:48:22;;;;;;;8.70;3.20;;;6.70;99.90;;;;;;5055247;28;20625;-63
2022/04/08 04:50:48;;;;;;;4.13;3.10;;;6.70;99.90;;;;;;5054486;28;20185;-63
2022/04/08 04:53:14;;;;;;;6.33;3.30;;;6.80;99.90;;;;;;5055384;28;20215;-64
2022/04/08 04:55:39;;;;;;;6.93;3.57;;;6.70;99.90;;;;;;5054989;28;20221;-64
2022/04/08 04:58:05;;;;;;;8.27;3.73;;;6.70;99.90;;;;;;5055421;28;20165;-65
2022/04/08 05:00:31;;;;;;;10.47;3.57;;;6.80;99.90;;;;;;5054409;28;20527;-64
2022/04/08 05:02:57;;;;;;;7.57;3.63;;;6.80;99.90;;;;;;5054698;28;20180;-63
2022/04/08 05:05:22;;;;;;;9.20;3.10;;;6.80;99.90;;;;;;5054395;28;20173;-64
2022/04/08 05:07:48;;;;;;;4.57;3.10;;;6.80;99.90;;;;;;5054175;28;20264;-63
2022/04/08 05:10:13;;;;;;;9.47;3.47;;;6.80;99.90;;;;;;5054889;28;20177;-63
2022/04/08 05:12:39;;;;;;;6.30;3.20;;;6.80;99.90;;;;;;5054357;28;20613;-64
2022/04/08 05:15:06;;;;;;;9.27;3.73;;;6.80;99.90;;;;;;5054297;28;20177;-64
2022/04/08 05:17:35;;;;;;;6.63;3.83;;;6.90;99.90;;;;;;5054971;28;20173;-63
2022/04/08 05:20:06;;;;;;;11.57;3.53;;;6.90;99.90;;;;;;5054129;28;20170;-64
2022/04/08 05:22:32;;;;;;;8.17;3.17;;;7.00;99.90;;;;;;5054456;28;20231;-64
2022/04/08 05:24:59;;;;;;;4.90;3.30;;;7.00;99.90;;;;;;5054001;28;20165;-63
2022/04/08 05:27:25;;;;;;;10.47;3.93;;;7.00;99.90;;;;;;5054805;28;20638;-63
2022/04/08 05:29:51;;;;;;;10.00;3.53;;;7.10;99.90;;;;;;5054406;28;20177;-64
2022/04/08 05:32:17;;;;;;;9.37;3.30;;;7.10;99.90;;;;;;5054220;28;20206;-63
2022/04/08 05:34:42;;;;;;;7.93;3.50;;;7.10;99.90;;;;;;5053743;28;20189;-63
2022/04/08 05:37:08;;;;;;;6.50;2.80;;;7.10;99.90;;;;;;5054028;28;20291;-64
2022/04/08 05:39:34;;;;;;;13.80;3.40;;;7.20;99.90;;;;;;5054532;28;20616;-64
2022/04/08 05:41:59;;;;;;;7.60;2.70;;;7.30;99.90;;;;;;5053662;28;20259;-63
2022/04/08 05:44:25;;;;;;;13.67;3.30;;;7.40;99.90;;;;;;5054085;28;20181;-63
2022/04/08 05:46:50;;;;;;;11.53;3.40;;;7.40;99.90;;;;;;5054114;28;20193;-64
2022/04/08 05:49:17;;;;;;;7.20;3.10;;;7.40;99.90;;;;;;5053114;28;20173;-64
2022/04/08 05:51:43;;;;;;;6.63;3.10;;;7.40;99.90;;;;;;5053800;28;20528;-64
2022/04/08 05:54:09;;;;;;;9.37;2.93;;;7.50;99.90;;;;;;5053603;28;20664;-65
2022/04/08 05:56:34;;;;;;;5.50;2.57;;;7.60;99.90;;;;;;5053372;28;20212;-64
2022/04/08 05:59:00;;;;;;;6.97;2.90;;;7.60;99.90;;;;;;5053712;28;20177;-66
2022/04/08 06:01:26;;;;;;;10.70;3.13;;;7.70;99.90;;;;;;5053557;28;20178;-64
2022/04/08 06:03:51;;;;;;;9.00;2.80;;;7.70;99.90;;;;;;5052569;28;20216;-63
2022/04/08 06:06:17;;;;;;;9.47;2.87;;;7.80;99.90;;;;;;5053757;28;20181;-63
2022/04/08 06:08:42;;;;;;;3.73;2.47;;;8.00;99.90;;;;;;5053338;28;20222;-64
2022/04/08 06:11:08;;;;;;;8.20;2.77;;;8.10;99.90;;;;;;5052944;28;20686;-64
2022/04/08 06:13:33;;;;;;;11.10;2.97;;;8.00;99.90;;;;;;5053590;28;20666;-65
2022/04/08 06:15:59;;;;;;;6.20;2.60;;;8.10;99.90;;;;;;5053345;28;20177;-64
2022/04/08 06:18:24;;;;;;;9.47;2.80;;;8.10;99.90;;;;;;5052882;28;20180;-64
2022/04/08 06:20:50;;;;;;;6.90;2.87;;;8.10;99.90;;;;;;5053253;28;20161;-65
2022/04/08 06:23:17;;;;;;;6.37;2.40;;;8.10;99.90;;;;;;5053429;28;20643;-63
2022/04/08 06:25:42;;;;;;;3.80;2.17;;;8.20;99.90;;;;;;5052771;28;20256;-64
2022/04/08 06:28:08;;;;;;;6.27;2.77;;;8.30;99.90;;;;;;5053163;28;20644;-65
2022/04/08 06:30:36;;;;;;;7.50;3.00;;;8.30;99.90;;;;;;5052652;28;20177;-63
2022/04/08 06:33:06;;;;;;;8.97;3.20;;;8.40;99.90;;;;;;5052082;28;20292;-63
2022/04/08 06:35:33;;;;;;;5.13;2.33;;;8.40;99.90;;;;;;5053486;28;20181;-65
2022/04/08 06:38:03;;;;;;;4.90;2.50;;;8.30;99.90;;;;;;5053316;28;20181;-63
2022/04/08 06:40:32;;;;;;;5.27;2.60;;;8.20;99.90;;;;;;5052299;28;20617;-65
2022/04/08 06:43:00;;;;;;;5.63;2.60;;;8.30;99.90;;;;;;5052530;28;20172;-64
2022/04/08 06:45:27;;;;;;;10.27;2.90;;;8.20;99.90;;;;;;5052815;28;20186;-64
2022/04/08 06:47:53;;;;;;;8.07;2.80;;;8.20;99.90;;;;;;5051978;28;20177;-65
2022/04/08 06:50:20;;;;;;;6.10;2.80;;;8.20;99.90;;;;;;5051877;28;20211;-65
2022/04/08 06:52:46;;;;;;;6.10;2.67;;;8.20;99.90;;;;;;5052563;28;20220;-64
2022/04/08 06:55:12;;;;;;;7.40;2.60;;;8.30;99.90;;;;;;5052081;28;20229;-64
2022/04/08 06:57:39;;;;;;;9.93;3.43;;;8.40;99.90;;;;;;5052784;28;20173;-64
2022/04/08 07:00:06;;;;;;;5.67;2.90;;;8.40;99.90;;;;;;5051607;28;20620;-65
2022/04/08 07:02:32;;;;;;;10.20;3.10;;;8.40;99.90;;;;;;5052171;28;20239;-64
2022/04/08 07:04:58;;;;;;;11.40;3.00;;;8.60;99.90;;;;;;5052292;28;20617;-63
2022/04/08 07:07:31;;;;;;;8.20;3.20;;;8.50;99.90;;;;;;5052965;28;20173;-63
2022/04/08 07:09:57;;;;;;;5.87;2.80;;;8.40;99.90;;;;;;5051100;28;20173;-63
2022/04/08 07:12:27;;;;;;;9.33;2.83;;;8.60;99.90;;;;;;5051774;28;20199;-63
2022/04/08 07:14:53;;;;;;;11.80;3.00;;;8.70;99.90;;;;;;5052320;28;20177;-64
2022/04/08 07:17:35;;;;;;;11.00;2.97;;;8.70;99.90;;;;;;5052743;28;20173;-64
2022/04/08 07:20:01;;;;;;;7.73;2.90;;;8.60;99.90;;;;;;5054673;28;20180;-65
2022/04/08 07:22:27;;;;;;;8.70;3.10;;;8.60;99.90;;;;;;5064803;28;20583;-64
2022/04/08 07:24:53;;;;;;;7.83;3.33;;;8.60;99.90;;;;;;5070908;28;20687;-64
2022/04/08 07:27:20;;;;;;;5.50;2.87;;;8.60;99.90;;;;;;5074956;28;20195;-63
2022/04/08 07:29:47;;;;;;;7.47;2.93;;;8.60;99.90;;;;;;5078578;28;20168;-63
2022/04/08 07:32:13;;;;;;;13.47;3.13;;;8.70;99.90;;;;;;5082164;28;20179;-64
2022/04/08 07:34:39;;;;;;;6.27;2.80;;;8.70;99.90;;;;;;5074608;28;20208;-64
2022/04/08 07:37:05;;;;;;;10.00;3.40;;;8.90;99.90;;;;;;5075234;28;20176;-64
2022/04/08 07:39:31;;;;;;;8.60;2.90;;;9.00;99.90;;;;;;5075771;28;20172;-64
2022/04/08 07:41:58;;;;;;;7.17;2.73;;;9.00;99.90;;;;;;5078027;28;20262;-64
2022/04/08 07:44:23;;;;;;;6.90;2.90;;;8.90;99.90;;;;;;5087871;28;20176;-63
2022/04/08 07:46:49;;;;;;;6.20;2.90;;;8.90;99.90;;;;;;5073898;28;20195;-64
2022/04/08 07:49:14;;;;;;;7.03;2.53;;;8.90;99.90;;;;;;5067450;28;20237;-64
2022/04/08 07:51:41;;;;;;;9.53;2.80;;;8.90;99.90;;;;;;5080210;28;20255;-63
2022/04/08 07:54:07;;;;;;;9.40;2.83;;;8.90;99.90;;;;;;5059511;28;20355;-64
2022/04/08 07:56:35;;;;;;;7.23;2.80;;;9.00;99.90;;;;;;5066858;28;20304;-64
2022/04/08 07:59:01;;;;;;;7.07;2.33;;;9.10;99.90;;;;;;5069000;28;20180;-64
2022/04/08 08:01:27;;;;;;;9.77;2.77;;;9.30;99.90;;;;;;5052506;28;20232;-64
2022/04/08 08:03:52;;;;;;;8.27;2.67;;;9.20;99.90;;;;;;5050746;28;20197;-64
2022/04/08 08:06:18;;;;;;;3.83;2.43;;;9.20;99.90;;;;;;5059540;28;20169;-64
2022/04/08 08:08:44;;;;;;;7.93;1.97;;;9.40;99.90;;;;;;5072209;28;20226;-64
2022/04/08 08:11:12;;;;;;;6.80;2.37;;;9.20;99.90;;;;;;5071637;28;20233;-64
2022/04/08 08:13:38;;;;;;;5.97;2.43;;;9.20;99.90;;;;;;5071530;28;20208;-64
2022/04/08 08:16:04;;;;;;;6.00;2.43;;;9.30;99.90;;;;;;5072135;28;20294;-65
2022/04/08 08:18:30;;;;;;;7.93;2.57;;;9.50;99.90;;;;;;5070232;28;20184;-64
2022/04/08 08:20:56;;;;;;;7.63;2.37;;;9.70;99.90;;;;;;5058178;28;20174;-64
2022/04/08 08:23:21;;;;;;;5.63;2.40;;;9.80;99.90;;;;;;5051810;28;20197;-63
2022/04/08 08:25:47;;;;;;;5.00;2.60;;;10.10;99.90;;;;;;5051079;28;20181;-64
2022/04/08 08:28:14;;;;;;;6.97;2.37;;;10.20;99.90;;;;;;5050768;28;20181;-64
2022/04/08 08:30:39;;;;;;;4.67;2.03;;;10.20;99.90;;;;;;5051475;28;20166;-64
2022/04/08 08:33:06;;;;;;;3.97;2.33;;;10.30;99.90;;;;;;5051391;28;20212;-64
2022/04/08 08:35:33;;;;;;;9.23;2.70;;;10.40;99.90;;;;;;5056217;28;20177;-64
2022/04/08 08:37:59;;;;;;;6.47;2.40;;;10.40;99.90;;;;;;5064876;28;20187;-65
2022/04/08 08:40:28;;;;;;;7.23;3.00;;;10.40;99.90;;;;;;5063742;28;20177;-65
2022/04/08 08:42:53;;;;;;;7.53;2.80;;;10.30;99.90;;;;;;5082404;28;20245;-65
2022/04/08 08:45:19;;;;;;;16.13;2.53;;;10.30;99.90;;;;;;5090288;28;20192;-64
2022/04/08 08:47:49;;;;;;;7.70;2.50;;;10.10;99.30;;;;;;5077822;28;20555;-65
2022/04/08 08:50:16;;;;;;;3.97;1.87;;;10.10;98.80;;;;;;5088757;28;20176;-64
2022/04/08 08:52:42;;;;;;;3.70;1.73;;;10.10;95.70;;;;;;5085033;28;20227;-64
2022/04/08 08:55:09;;;;;;;10.33;2.17;;;10.10;94.70;;;;;;5077404;28;20754;-64
2022/04/08 08:57:34;;;;;;;6.37;2.33;;;10.30;96.00;;;;;;5088255;28;20180;-64
2022/04/08 09:00:16;;;;;;;6.93;2.33;;;10.50;95.80;;;;;;5078360;28;20178;-65
2022/04/08 09:02:48;;;;;;;4.73;1.90;;;10.40;94.20;;;;;;5082916;28;20297;-65
2022/04/08 09:05:22;;;;;;;4.47;1.87;;;10.20;93.20;;;;;;5082719;28;20207;-63
2022/04/08 09:07:59;;;;;;;7.40;2.33;;;10.10;91.80;;;;;;5077811;28;20176;-64
2022/04/08 09:10:25;;;;;;;8.20;2.50;;;10.20;94.70;;;;;;5086241;28;20164;-64
2022/04/08 09:12:57;;;;;;;7.67;2.50;;;10.20;94.80;;;;;;5084115;28;20196;-65
2022/04/08 09:15:23;;;;;;;7.77;2.23;;;10.20;94.70;;;;;;5093617;28;20176;-64
2022/04/08 09:17:49;;;;;;;4.70;2.00;;;10.20;93.50;;;;;;5094434;28;20171;-64
2022/04/08 09:20:15;;;;;;;12.63;2.63;;;10.40;93.00;;;;;;5077284;28;20586;-64
2022/04/08 09:22:41;;;;;;;8.43;2.40;;;10.40;94.60;;;;;;5074051;28;20161;-66
2022/04/08 09:25:11;;;;;;;5.87;2.87;;;10.30;95.00;;;;;;5072587;28;20628;-64
2022/04/08 09:27:38;;;;;;;13.80;3.37;;;10.10;96.00;;;;;;5074103;28;20164;-64
2022/04/08 09:30:04;;;;;;;11.23;2.97;;;10.00;96.40;;;;;;5072339;28;20317;-64
2022/04/08 09:32:30;;;;;;;7.47;2.80;;;10.00;96.60;;;;;;5060865;28;20641;-64
2022/04/08 09:34:57;;;;;;;3.53;2.80;;;10.00;96.20;;;;;;5061554;28;20183;-65
2022/04/08 09:37:23;;;;;;;7.80;2.90;;;10.00;96.20;;;;;;5074426;28;20173;-63
2022/04/08 09:39:51;;;;;;;8.57;2.90;;;10.00;97.00;;;;;;5073678;28;20226;-63
2022/04/08 09:42:17;;;;;;;3.50;2.10;;;10.00;96.30;;;;;;5074309;28;20230;-66
2022/04/08 09:44:42;;;;;;;7.57;2.20;;;10.00;94.20;;;;;;5074148;28;20627;-64
2022/04/08 09:47:08;;;;;;;13.47;2.37;;;9.80;94.70;;;;;;5073629;28;20176;-65
2022/04/08 09:49:34;;;;;;;9.27;3.37;;;9.70;94.20;;;;;;5073861;28;20187;-63
2022/04/08 09:52:05;;;;;;;9.27;3.00;;;9.60;97.00;;;;;;5073880;28;20651;-64
2022/04/08 09:54:33;;;;;;;6.83;2.50;;;9.80;98.50;;;;;;5072154;28;20266;-63
2022/04/08 09:57:00;;;;;;;8.53;2.77;;;9.80;96.50;;;;;;5073491;28;20228;-65
2022/04/08 09:59:29;;;;;;;9.43;3.20;;;9.80;97.00;;;;;;5072190;28;20215;-65
2022/04/08 10:01:58;;;;;;;9.83;2.93;;;9.90;98.40;;;;;;5058921;28;20264;-64
2022/04/08 10:04:24;;;;;;;6.83;2.80;;;10.10;98.60;;;;;;5065421;28;20166;-64
2022/04/08 10:06:50;;;;;;;7.43;2.77;;;10.20;97.10;;;;;;5065540;28;20238;-65
2022/04/08 10:09:19;;;;;;;8.23;2.70;;;10.20;95.50;;;;;;5073197;28;20165;-65
2022/04/08 10:11:58;;;;;;;7.90;2.50;;;10.20;95.90;;;;;;5073052;28;20173;-64
2022/04/08 10:14:40;;;;;;;7.10;2.53;;;10.40;95.60;;;;;;5073559;28;20596;-64
2022/04/08 10:17:07;;;;;;;7.97;3.10;;;10.50;95.30;;;;;;5073119;28;20172;-64
2022/04/08 10:19:34;;;;;;;7.47;2.60;;;10.60;95.30;;;;;;5073094;28;20172;-64
2022/04/08 10:22:02;;;;;;;6.77;2.90;;;10.60;93.40;;;;;;5073119;28;20298;-66
2022/04/08 10:24:30;;;;;;;11.63;2.63;;;10.50;94.10;;;;;;5053104;28;20180;-65
2022/04/08 10:27:08;;;;;;;9.07;2.70;;;10.50;94.50;;;;;;5053437;28;20171;-64
2022/04/08 10:29:35;;;;;;;4.17;2.90;;;10.40;94.60;;;;;;5053726;28;20180;-64
2022/04/08 10:32:02;;;;;;;11.13;3.10;;;10.40;94.00;;;;;;5053356;28;20173;-64
2022/04/08 10:34:35;;;;;;;4.90;2.03;;;10.50;93.60;;;;;;5053102;28;20575;-64
2022/04/08 10:37:02;;;;;;;5.63;2.20;;;10.40;89.50;;;;;;5053099;28;20169;-64
2022/04/08 10:39:28;;;;;;;7.50;2.40;;;10.50;90.70;;;;;;5053137;28;20177;-63
2022/04/08 10:41:59;;;;;;;7.33;1.80;;;10.40;87.00;;;;;;5052998;28;20651;-64
2022/04/08 10:44:39;;;;;;;4.10;2.17;;;10.50;81.90;;;;;;5052814;28;20593;-64
2022/04/08 10:47:10;;;;;;;8.60;2.27;;;10.40;85.90;;;;;;5052522;28;20184;-64
2022/04/08 10:49:50;;;;;;;5.20;2.50;;;10.20;90.90;;;;;;5052826;28;20181;-64
2022/04/08 10:52:18;;;;;;;9.77;2.70;;;10.20;90.20;;;;;;5052783;28;20193;-64
2022/04/08 10:54:44;;;;;;;9.47;2.20;;;10.00;90.20;;;;;;5052076;28;20667;-64
2022/04/08 10:57:10;;;;;;;8.70;2.50;;;10.10;87.60;;;;;;5052885;28;20217;-65
2022/04/08 10:59:35;;;;;;;7.13;2.30;;;10.10;85.10;;;;;;5052704;28;20606;-65
2022/04/08 11:02:05;;;;;;;8.33;2.53;;;10.20;83.00;;;;;;5052197;28;20636;-65
2022/04/08 11:04:32;;;;;;;3.80;2.00;;;10.30;83.90;;;;;;5052172;28;20252;-65
2022/04/08 11:07:05;;;;;;;6.03;2.53;;;10.30;84.50;;;;;;5050434;28;20179;-64
2022/04/08 11:09:31;;;;;;;8.00;2.70;;;10.50;86.90;;;;;;5052242;28;20245;-64
2022/04/08 11:11:57;;;;;;;4.90;2.47;;;10.70;87.30;;;;;;5052337;28;20184;-65
2022/04/08 11:14:23;;;;;;;8.90;2.63;;;10.90;87.50;;;;;;5052418;28;20212;-66
2022/04/08 11:16:52;;;;;;;5.90;2.27;;;11.30;86.50;;;;;;5053024;28;20252;-65
2022/04/08 11:19:22;;;;;;;10.27;2.90;;;11.50;83.50;;;;;;5052244;28;20259;-66
2022/04/08 11:21:48;;;;;;;6.13;2.63;;;11.70;81.90;;;;;;5052107;28;20276;-65
2022/04/08 11:24:16;;;;;;;4.50;2.10;;;11.50;81.10;;;;;;5052624;28;20219;-65
2022/04/08 11:26:50;;;;;;;6.93;2.60;;;11.50;81.20;;;;;;5051638;28;20639;-65
2022/04/08 11:29:24;;;;;;;8.20;3.03;;;11.10;81.60;;;;;;5052288;28;20264;-64
2022/04/08 11:32:05;;;;;;;7.13;2.63;;;10.60;83.40;;;;;;5052454;28;20203;-64
2022/04/08 11:34:31;;;;;;;8.57;2.50;;;10.70;85.80;;;;;;5051862;28;20208;-64
2022/04/08 11:36:57;;;;;;;10.00;2.83;;;10.40;84.00;;;;;;5052379;28;20203;-65
2022/04/08 11:39:23;;;;;;;5.50;2.30;;;10.50;84.90;;;;;;5052260;28;20169;-64
2022/04/08 11:41:53;;;;;;;5.33;2.00;;;10.90;83.90;;;;;;5051993;28;20178;-66
2022/04/08 11:44:19;;;;;;;5.63;2.43;;;11.20;80.50;;;;;;5052579;28;20222;-65
2022/04/08 11:46:45;;;;;;;5.43;2.10;;;11.20;80.20;;;;;;5052042;28;20246;-63
2022/04/08 11:49:14;;;;;;;3.43;2.00;;;11.20;78.90;;;;;;5051952;28;20176;-64
2022/04/08 11:51:40;;;;;;;7.90;2.50;;;11.30;79.30;;;;;;5051581;28;20198;-64
2022/04/08 11:54:06;;;;;;;5.57;2.70;;;11.50;77.70;;;;;;5051869;28;20201;-66
2022/04/08 11:56:32;;;;;;;10.80;2.90;;;11.60;75.60;;;;;;5051770;28;20216;-65
2022/04/08 11:59:08;;;;;;;5.87;2.37;;;11.80;74.10;;;;;;5052062;28;20280;-64
2022/04/08 12:01:37;;;;;;;5.10;2.00;;;11.80;74.00;;;;;;5051598;28;20241;-64
2022/04/08 12:04:05;;;;;;;6.63;2.30;;;12.10;72.40;;;;;;5051889;28;20174;-65
2022/04/08 12:06:40;;;;;;;5.93;2.30;;;12.10;71.20;;;;;;5051902;28;20162;-65
2022/04/08 12:09:07;;;;;;;9.77;2.70;;;12.30;70.90;;;;;;5054000;28;20240;-64
2022/04/08 12:11:36;;;;;;;7.23;2.53;;;12.20;71.40;;;;;;5071172;28;20168;-65
2022/04/08 12:14:05;;;;;;;7.67;2.60;;;12.20;68.70;;;;;;5066540;28;20214;-64
2022/04/08 12:16:31;;;;;;;2.93;1.90;;;12.40;69.50;;;;;;5076469;28;20670;-64
2022/04/08 12:18:57;;;;;;;4.73;2.27;;;12.60;68.00;;;;;;5080025;28;20164;-64
2022/04/08 12:21:25;;;;;;;7.63;2.60;;;12.60;67.10;;;;;;5059241;28;20169;-65
2022/04/08 12:23:55;;;;;;;5.00;2.13;;;12.40;66.20;;;;;;5077533;28;20182;-65
2022/04/08 12:26:32;;;;;;;7.13;3.03;;;12.50;66.10;;;;;;5081187;28;20188;-64
2022/04/08 12:29:09;;;;;;;6.43;2.80;;;12.60;65.60;;;;;;5086254;28;20185;-64
2022/04/08 12:31:49;;;;;;;6.93;2.47;;;12.80;64.80;;;;;;5063533;28;20217;-64
2022/04/08 12:34:17;;;;;;;6.43;2.60;;;12.80;64.60;;;;;;5084657;28;20200;-65
2022/04/08 12:36:44;;;;;;;4.10;2.27;;;12.80;64.70;;;;;;5082414;28;20223;-64
2022/04/08 12:39:11;;;;;;;3.83;2.43;;;12.80;64.90;;;;;;5091215;28;20168;-65
2022/04/08 12:41:45;;;;;;;6.50;2.87;;;12.90;63.80;;;;;;5073099;28;20180;-64
2022/04/08 12:44:11;;;;;;;7.73;2.90;;;13.00;63.30;;;;;;5070139;28;20173;-63
2022/04/08 12:46:37;;;;;;;5.50;2.83;;;13.10;63.20;;;;;;5075198;28;20188;-64
2022/04/08 12:49:04;;;;;;;9.73;2.47;;;13.10;63.70;;;;;;5074170;28;20254;-64
2022/04/08 12:51:30;;;;;;;4.20;2.50;;;13.20;62.60;;;;;;5073192;28;20181;-65